createdAt,value
2018-01-05T00:00:36.442Z,8.28
2018-01-05T00:01:37.049Z,8.23
2018-01-05T00:02:37.646Z,8.30
2018-01-05T00:03:38.251Z,8.30
2018-01-05T00:04:38.853Z,8.30
2018-01-05T00:05:39.457Z,8.31
2018-01-05T00:06:40.055Z,8.17
2018-01-05T00:07:40.665Z,8.27
2018-01-05T00:08:41.260Z,8.30
2018-01-05T00:09:41.868Z,8.23
2018-01-05T00:10:42.479Z,8.15
2018-01-05T00:11:43.083Z,8.13
2018-01-05T00:12:43.681Z,8.16
2018-01-05T00:13:44.275Z,8.17
2018-01-05T00:14:44.875Z,8.17
2018-01-05T00:15:45.465Z,8.16
2018-01-05T00:16:46.072Z,8.15
2018-01-05T00:17:46.672Z,8.17
2018-01-05T00:18:47.274Z,8.25
2018-01-05T00:19:47.879Z,8.20
2018-01-05T00:20:48.491Z,8.20
2018-01-05T00:21:49.087Z,8.23
2018-01-05T00:22:49.696Z,8.16
2018-01-05T00:23:50.318Z,8.17
2018-01-05T00:24:50.900Z,8.16
2018-01-05T00:25:51.498Z,8.09
2018-01-05T00:26:52.102Z,8.16
2018-01-05T00:27:52.692Z,8.10
2018-01-05T00:28:53.295Z,8.09
2018-01-05T00:29:53.902Z,8.19
2018-01-05T00:30:54.507Z,8.20
2018-01-05T00:31:55.101Z,8.20
2018-01-05T00:32:55.703Z,8.15
2018-01-05T00:33:56.300Z,8.20
2018-01-05T00:34:56.905Z,8.19
2018-01-05T00:35:57.515Z,8.19
2018-01-05T00:36:58.122Z,8.22
2018-01-05T00:37:58.727Z,8.15
2018-01-05T00:38:59.318Z,8.19
2018-01-05T00:39:59.913Z,8.30
2018-01-05T00:41:00.512Z,8.28
2018-01-05T00:42:01.110Z,8.33
2018-01-05T00:43:01.702Z,8.31
2018-01-05T00:44:02.309Z,8.33
2018-01-05T00:45:02.907Z,8.27
2018-01-05T00:46:03.502Z,8.30
2018-01-05T00:47:04.130Z,8.41
2018-01-05T00:48:04.718Z,8.35
2018-01-05T00:49:05.320Z,8.38
2018-01-05T00:50:05.918Z,8.45
2018-01-05T00:51:06.523Z,8.40
2018-01-05T00:52:07.124Z,8.46
2018-01-05T00:53:07.730Z,8.49
2018-01-05T00:54:08.344Z,8.50
2018-01-05T00:55:08.956Z,8.58
2018-01-05T00:56:09.556Z,8.53
2018-01-05T00:57:10.161Z,8.52
2018-01-05T00:58:10.763Z,8.56
2018-01-05T00:59:11.369Z,8.46
2018-01-05T01:00:56.190Z,8.50
2018-01-05T01:01:56.792Z,8.52
2018-01-05T01:02:57.395Z,8.45
2018-01-05T01:03:58.000Z,8.45
2018-01-05T01:04:58.621Z,8.45
2018-01-05T01:05:59.224Z,8.37
2018-01-05T01:06:59.829Z,8.40
2018-01-05T01:08:00.455Z,8.40
2018-01-05T01:09:01.057Z,8.38
2018-01-05T01:10:01.661Z,8.49
2018-01-05T01:11:02.267Z,8.43
2018-01-05T01:12:02.869Z,8.43
2018-01-05T01:13:03.494Z,8.40
2018-01-05T01:14:04.097Z,8.41
2018-01-05T01:15:04.703Z,8.31
2018-01-05T01:16:05.306Z,8.28
2018-01-05T01:17:05.930Z,8.37
2018-01-05T01:18:06.534Z,8.25
2018-01-05T01:19:07.160Z,8.30
2018-01-05T01:20:07.763Z,8.27
2018-01-05T01:21:08.366Z,8.27
2018-01-05T01:22:08.971Z,8.28
2018-01-05T01:23:09.574Z,8.25
2018-01-05T01:24:10.178Z,8.25
2018-01-05T01:25:10.789Z,8.31
2018-01-05T01:26:11.388Z,8.30
2018-01-05T01:27:11.992Z,8.34
2018-01-05T01:28:12.596Z,8.43
2018-01-05T01:29:13.200Z,8.34
2018-01-05T01:30:13.800Z,8.41
2018-01-05T01:31:14.403Z,8.41
2018-01-05T01:32:15.001Z,8.45
2018-01-05T01:33:15.597Z,8.38
2018-01-05T01:34:16.188Z,8.40
2018-01-05T01:35:16.786Z,8.45
2018-01-05T01:36:17.386Z,8.33
2018-01-05T01:37:17.987Z,8.31
2018-01-05T01:38:18.581Z,8.41
2018-01-05T01:39:19.180Z,8.33
2018-01-05T01:40:19.780Z,8.30
2018-01-05T01:41:20.376Z,8.30
2018-01-05T01:42:20.975Z,8.33
2018-01-05T01:43:21.590Z,8.31
2018-01-05T01:44:22.185Z,8.41
2018-01-05T01:45:22.796Z,8.34
2018-01-05T01:46:23.396Z,8.38
2018-01-05T01:47:24.001Z,8.33
2018-01-05T01:48:24.593Z,8.28
2018-01-05T01:49:25.196Z,8.33
2018-01-05T01:50:25.801Z,8.38
2018-01-05T01:51:26.402Z,8.28
2018-01-05T01:52:27.003Z,8.31
2018-01-05T01:53:27.605Z,8.23
2018-01-05T01:54:28.204Z,8.23
2018-01-05T01:55:28.802Z,8.23
2018-01-05T01:56:29.403Z,8.33
2018-01-05T01:57:30.017Z,8.25
2018-01-05T01:58:30.614Z,8.27
2018-01-05T01:59:31.212Z,8.25
2018-01-05T02:00:31.821Z,8.28
2018-01-05T02:01:32.419Z,8.28
2018-01-05T02:02:33.029Z,8.25
2018-01-05T02:03:33.631Z,8.30
2018-01-05T02:04:34.229Z,8.13
2018-01-05T02:05:34.847Z,8.15
2018-01-05T02:06:35.442Z,8.15
2018-01-05T02:07:36.033Z,8.28
2018-01-05T02:08:36.632Z,8.27
2018-01-05T02:09:37.218Z,8.28
2018-01-05T02:10:37.824Z,8.27
2018-01-05T02:11:38.435Z,8.23
2018-01-05T02:12:39.042Z,8.27
2018-01-05T02:13:39.646Z,8.33
2018-01-05T02:14:40.240Z,8.27
2018-01-05T02:15:40.849Z,8.34
2018-01-05T02:16:41.460Z,8.35
2018-01-05T02:17:42.063Z,8.27
2018-01-05T02:18:42.666Z,8.23
2018-01-05T02:19:43.256Z,8.28
2018-01-05T02:20:43.843Z,8.27
2018-01-05T02:21:44.432Z,8.23
2018-01-05T02:22:45.031Z,8.20
2018-01-05T02:23:45.621Z,8.19
2018-01-05T02:24:46.222Z,8.17
2018-01-05T02:25:46.831Z,8.16
2018-01-05T02:26:47.434Z,8.23
2018-01-05T02:27:48.045Z,8.19
2018-01-05T02:28:48.649Z,8.20
2018-01-05T02:29:49.249Z,8.17
2018-01-05T02:30:49.846Z,8.15
2018-01-05T02:31:50.451Z,8.13
2018-01-05T02:32:51.054Z,8.16
2018-01-05T02:33:51.656Z,8.22
2018-01-05T02:34:52.254Z,8.20
2018-01-05T02:35:52.859Z,8.19
2018-01-05T02:36:53.461Z,8.19
2018-01-05T02:37:54.056Z,8.28
2018-01-05T02:38:54.645Z,8.34
2018-01-05T02:39:55.239Z,8.33
2018-01-05T02:40:55.837Z,8.30
2018-01-05T02:41:56.443Z,8.27
2018-01-05T02:42:57.059Z,8.41
2018-01-05T02:43:57.661Z,8.40
2018-01-05T02:44:58.266Z,8.27
2018-01-05T02:45:58.876Z,8.40
2018-01-05T02:46:59.474Z,8.25
2018-01-05T02:48:00.060Z,8.35
2018-01-05T02:49:00.654Z,8.31
2018-01-05T02:50:01.252Z,8.30
2018-01-05T02:51:01.847Z,8.12
2018-01-05T02:52:02.447Z,8.16
2018-01-05T02:53:03.037Z,8.13
2018-01-05T02:54:03.634Z,8.10
2018-01-05T02:55:04.227Z,8.10
2018-01-05T02:56:04.824Z,8.06
2018-01-05T02:57:05.445Z,8.01
2018-01-05T02:58:06.035Z,8.04
2018-01-05T02:59:06.643Z,8.09
2018-01-05T03:00:07.251Z,7.98
2018-01-05T03:01:07.850Z,8.01
2018-01-05T03:02:08.451Z,7.97
2018-01-05T03:03:09.060Z,8.01
2018-01-05T03:04:09.671Z,7.89
2018-01-05T03:05:10.260Z,7.89
2018-01-05T03:06:10.863Z,7.89
2018-01-05T03:07:11.466Z,7.80
2018-01-05T03:08:12.055Z,7.81
2018-01-05T03:09:12.650Z,7.89
2018-01-05T03:10:13.269Z,7.86
2018-01-05T03:11:13.841Z,7.80
2018-01-05T03:12:14.432Z,7.81
2018-01-05T03:13:15.034Z,7.66
2018-01-05T03:14:15.628Z,7.74
2018-01-05T03:15:16.234Z,7.73
2018-01-05T03:16:16.854Z,7.74
2018-01-05T03:17:17.449Z,7.66
2018-01-05T03:18:18.048Z,7.63
2018-01-05T03:19:18.648Z,7.58
2018-01-05T03:20:19.251Z,7.57
2018-01-05T03:21:19.856Z,7.58
2018-01-05T03:22:20.453Z,7.55
2018-01-05T03:23:21.050Z,7.50
2018-01-05T03:24:21.667Z,7.57
2018-01-05T03:25:22.268Z,7.43
2018-01-05T03:26:22.869Z,7.50
2018-01-05T03:27:23.476Z,7.45
2018-01-05T03:28:24.080Z,7.50
2018-01-05T03:29:24.687Z,7.51
2018-01-05T03:30:25.285Z,7.40
2018-01-05T03:31:25.889Z,7.40
2018-01-05T03:32:26.483Z,7.45
2018-01-05T03:33:27.083Z,7.33
2018-01-05T03:34:27.680Z,7.43
2018-01-05T03:35:28.278Z,7.37
2018-01-05T03:36:28.885Z,7.42
2018-01-05T03:37:29.478Z,7.39
2018-01-05T03:38:30.080Z,7.40
2018-01-05T03:39:30.677Z,7.39
2018-01-05T03:40:31.276Z,7.40
2018-01-05T03:41:31.880Z,7.39
2018-01-05T03:42:32.477Z,7.43
2018-01-05T03:43:33.065Z,7.42
2018-01-05T03:44:33.663Z,7.50
2018-01-05T03:45:34.266Z,7.47
2018-01-05T03:46:34.868Z,7.50
2018-01-05T03:47:35.477Z,7.50
2018-01-05T03:48:36.077Z,7.51
2018-01-05T03:49:36.680Z,7.61
2018-01-05T03:50:37.291Z,7.64
2018-01-05T03:51:37.905Z,7.74
2018-01-05T03:52:38.513Z,7.69
2018-01-05T03:53:39.109Z,7.83
2018-01-05T03:54:39.710Z,7.84
2018-01-05T03:55:40.308Z,7.91
2018-01-05T03:56:40.910Z,7.94
2018-01-05T03:57:41.517Z,7.89
2018-01-05T03:58:42.120Z,8.01
2018-01-05T03:59:42.730Z,8.06
2018-01-05T04:00:43.344Z,8.01
2018-01-05T04:01:43.947Z,8.02
2018-01-05T04:02:44.541Z,8.09
2018-01-05T04:03:45.131Z,7.99
2018-01-05T04:04:45.733Z,7.99
2018-01-05T04:05:46.328Z,8.09
2018-01-05T04:06:46.932Z,8.06
2018-01-05T04:07:47.545Z,8.10
2018-01-05T04:08:48.155Z,8.07
2018-01-05T04:09:48.753Z,8.09
2018-01-05T04:10:49.361Z,8.17
2018-01-05T04:11:49.973Z,8.06
2018-01-05T04:12:50.579Z,8.16
2018-01-05T04:13:51.176Z,8.17
2018-01-05T04:14:51.771Z,8.25
2018-01-05T04:15:52.376Z,8.15
2018-01-05T04:16:52.993Z,8.16
2018-01-05T04:17:53.587Z,8.15
2018-01-05T04:18:54.200Z,8.28
2018-01-05T04:19:54.806Z,8.25
2018-01-05T04:20:55.403Z,8.33
2018-01-05T04:21:56.010Z,8.27
2018-01-05T04:22:56.612Z,8.33
2018-01-05T04:23:57.215Z,8.25
2018-01-05T04:24:57.811Z,8.23
2018-01-05T04:25:58.417Z,8.33
2018-01-05T04:26:59.019Z,8.30
2018-01-05T04:27:59.614Z,8.31
2018-01-05T04:29:00.210Z,8.28
2018-01-05T04:30:00.809Z,8.31
2018-01-05T04:31:01.413Z,8.45
2018-01-05T04:32:01.998Z,8.37
2018-01-05T04:33:02.591Z,8.41
2018-01-05T04:34:03.196Z,8.46
2018-01-05T04:35:03.805Z,8.43
2018-01-05T04:36:04.397Z,8.41
2018-01-05T04:37:04.998Z,8.55
2018-01-05T04:38:05.600Z,8.50
2018-01-05T04:39:06.203Z,8.53
2018-01-05T04:40:06.796Z,8.55
2018-01-05T04:41:07.399Z,8.53
2018-01-05T04:42:07.998Z,8.55
2018-01-05T04:43:08.585Z,8.53
2018-01-05T04:44:09.191Z,8.58
2018-01-05T04:45:09.779Z,8.66
2018-01-05T04:46:10.376Z,8.58
2018-01-05T04:47:10.995Z,8.64
2018-01-05T04:48:11.584Z,8.64
2018-01-05T04:49:12.184Z,8.63
2018-01-05T04:50:12.776Z,8.60
2018-01-05T04:51:13.372Z,8.66
2018-01-05T04:52:13.993Z,8.63
2018-01-05T04:53:14.566Z,8.64
2018-01-05T04:54:15.172Z,8.67
2018-01-05T04:55:15.778Z,8.64
2018-01-05T04:56:16.390Z,8.74
2018-01-05T04:57:16.992Z,8.68
2018-01-05T04:58:17.590Z,8.66
2018-01-05T04:59:18.190Z,8.76
2018-01-05T05:00:18.786Z,8.77
2018-01-05T05:01:19.393Z,8.73
2018-01-05T05:02:19.994Z,8.73
2018-01-05T05:03:20.588Z,8.78
2018-01-05T05:04:21.197Z,8.81
2018-01-05T05:05:21.796Z,8.76
2018-01-05T05:06:22.405Z,8.84
2018-01-05T05:07:23.008Z,8.77
2018-01-05T05:08:23.606Z,8.85
2018-01-05T05:09:24.203Z,8.84
2018-01-05T05:10:24.815Z,8.84
2018-01-05T05:11:25.418Z,8.85
2018-01-05T05:12:26.016Z,8.85
2018-01-05T05:13:26.622Z,8.89
2018-01-05T05:14:27.233Z,8.82
2018-01-05T05:15:27.839Z,8.84
2018-01-05T05:16:28.428Z,8.82
2018-01-05T05:17:29.018Z,8.76
2018-01-05T05:18:29.610Z,8.85
2018-01-05T05:19:30.214Z,8.91
2018-01-05T05:20:30.820Z,8.89
2018-01-05T05:21:31.419Z,8.89
2018-01-05T05:22:32.007Z,8.96
2018-01-05T05:23:32.610Z,8.81
2018-01-05T05:24:33.208Z,8.89
2018-01-05T05:25:33.817Z,8.78
2018-01-05T05:26:34.413Z,8.81
2018-01-05T05:27:35.026Z,8.76
2018-01-05T05:28:35.611Z,8.76
2018-01-05T05:29:36.208Z,8.74
2018-01-05T05:30:36.814Z,8.73
2018-01-05T05:31:37.424Z,8.78
2018-01-05T05:32:38.016Z,8.76
2018-01-05T05:33:38.604Z,8.82
2018-01-05T05:34:39.201Z,8.70
2018-01-05T05:35:39.807Z,8.81
2018-01-05T05:36:40.428Z,8.84
2018-01-05T05:37:41.020Z,8.81
2018-01-05T05:38:41.614Z,8.86
2018-01-05T05:39:42.203Z,8.93
2018-01-05T05:40:42.808Z,8.93
2018-01-05T05:41:43.425Z,8.92
2018-01-05T05:42:44.028Z,8.85
2018-01-05T05:43:44.625Z,8.81
2018-01-05T05:44:45.227Z,8.82
2018-01-05T05:45:45.831Z,8.77
2018-01-05T05:46:46.439Z,8.85
2018-01-05T05:47:47.046Z,8.77
2018-01-05T05:48:47.647Z,8.81
2018-01-05T05:49:48.231Z,8.76
2018-01-05T05:50:48.830Z,8.76
2018-01-05T05:51:49.427Z,8.71
2018-01-05T05:52:50.030Z,8.76
2018-01-05T05:53:50.626Z,8.82
2018-01-05T05:54:51.225Z,8.81
2018-01-05T05:55:51.832Z,8.78
2018-01-05T05:56:52.427Z,8.81
2018-01-05T05:57:53.025Z,8.78
2018-01-05T05:58:53.620Z,8.78
2018-01-05T05:59:54.227Z,8.73
2018-01-05T06:00:54.826Z,8.78
2018-01-05T06:01:55.416Z,8.82
2018-01-05T06:02:56.010Z,8.85
2018-01-05T06:03:56.616Z,8.84
2018-01-05T06:04:57.223Z,8.81
2018-01-05T06:05:57.873Z,8.84
2018-01-05T06:06:58.460Z,8.86
2018-01-05T06:07:59.062Z,8.81
2018-01-05T06:08:59.665Z,8.78
2018-01-05T06:10:00.264Z,8.81
2018-01-05T06:11:00.953Z,8.89
2018-01-05T06:12:01.528Z,8.84
2018-01-05T06:13:02.139Z,8.91
2018-01-05T06:14:02.746Z,8.92
2018-01-05T06:15:03.346Z,9.00
2018-01-05T06:16:03.943Z,8.96
2018-01-05T06:17:04.547Z,8.92
2018-01-05T06:18:05.151Z,8.93
2018-01-05T06:19:05.746Z,9.00
2018-01-05T06:20:06.343Z,8.98
2018-01-05T06:21:06.942Z,9.00
2018-01-05T06:22:07.543Z,9.00
2018-01-05T06:23:08.146Z,9.01
2018-01-05T06:24:08.738Z,9.01
2018-01-05T06:25:09.342Z,9.06
2018-01-05T06:26:09.946Z,9.08
2018-01-05T06:27:10.555Z,9.04
2018-01-05T06:28:11.161Z,9.03
2018-01-05T06:29:11.749Z,9.06
2018-01-05T06:30:12.358Z,9.03
2018-01-05T06:31:12.967Z,9.00
2018-01-05T06:32:13.573Z,8.93
2018-01-05T06:33:14.174Z,9.01
2018-01-05T06:34:14.772Z,9.00
2018-01-05T06:35:15.360Z,8.96
2018-01-05T06:36:15.959Z,8.86
2018-01-05T06:37:16.558Z,9.00
2018-01-05T06:38:17.158Z,8.89
2018-01-05T06:39:17.763Z,8.96
2018-01-05T06:40:18.370Z,8.98
2018-01-05T06:41:18.973Z,8.92
2018-01-05T06:42:19.569Z,8.95
2018-01-05T06:43:20.177Z,8.93
2018-01-05T06:44:20.773Z,8.88
2018-01-05T06:45:21.368Z,8.91
2018-01-05T06:46:21.988Z,8.84
2018-01-05T06:47:22.596Z,8.92
2018-01-05T06:48:23.195Z,8.89
2018-01-05T06:49:23.802Z,8.76
2018-01-05T06:50:24.412Z,8.85
2018-01-05T06:51:25.034Z,8.77
2018-01-05T06:52:25.645Z,8.86
2018-01-05T06:53:26.260Z,8.85
2018-01-05T06:54:26.883Z,8.77
2018-01-05T06:55:27.468Z,8.78
2018-01-05T06:56:28.067Z,8.81
2018-01-05T06:57:28.667Z,8.84
2018-01-05T06:58:29.268Z,8.86
2018-01-05T06:59:29.882Z,8.78
2018-01-05T07:00:30.474Z,8.76
2018-01-05T07:01:31.069Z,8.77
2018-01-05T07:02:31.671Z,8.77
2018-01-05T07:03:32.283Z,8.82
2018-01-05T07:04:32.883Z,8.78
2018-01-05T07:05:33.492Z,8.74
2018-01-05T07:06:34.106Z,8.81
2018-01-05T07:07:34.715Z,8.73
2018-01-05T07:08:35.315Z,8.68
2018-01-05T07:09:35.944Z,8.68
2018-01-05T07:10:36.540Z,8.66
2018-01-05T07:11:37.137Z,8.77
2018-01-05T07:12:37.815Z,8.64
2018-01-05T07:13:38.403Z,8.63
2018-01-05T07:14:39.024Z,8.64
2018-01-05T07:15:39.657Z,8.67
2018-01-05T07:16:40.250Z,8.68
2018-01-05T07:17:40.852Z,8.66
2018-01-05T07:18:41.465Z,8.76
2018-01-05T07:19:42.072Z,8.76
2018-01-05T07:20:42.679Z,8.74
2018-01-05T07:21:43.290Z,8.70
2018-01-05T07:22:43.886Z,8.81
2018-01-05T07:23:44.499Z,8.78
2018-01-05T07:24:45.091Z,8.78
2018-01-05T07:25:45.688Z,8.78
2018-01-05T07:26:46.292Z,8.82
2018-01-05T07:27:46.888Z,8.82
2018-01-05T07:28:47.491Z,8.74
2018-01-05T07:29:48.091Z,8.77
2018-01-05T07:30:48.694Z,8.85
2018-01-05T07:31:49.299Z,8.86
2018-01-05T07:32:49.913Z,8.77
2018-01-05T07:33:50.516Z,8.88
2018-01-05T07:34:51.111Z,8.88
2018-01-05T07:35:51.725Z,8.89
2018-01-05T07:36:52.325Z,8.92
2018-01-05T07:37:52.915Z,8.95
2018-01-05T07:38:53.517Z,8.93
2018-01-05T07:39:54.120Z,9.00
2018-01-05T07:40:54.726Z,8.93
2018-01-05T07:41:55.332Z,9.01
2018-01-05T07:42:55.927Z,9.00
2018-01-05T07:43:56.537Z,8.91
2018-01-05T07:44:57.144Z,8.93
2018-01-05T07:45:57.752Z,8.84
2018-01-05T07:46:58.357Z,8.95
2018-01-05T07:47:58.962Z,8.78
2018-01-05T07:48:59.572Z,8.78
2018-01-05T07:50:00.170Z,8.78
2018-01-05T07:51:00.771Z,8.71
2018-01-05T07:52:01.374Z,8.73
2018-01-05T07:53:01.984Z,8.73
2018-01-05T07:54:02.584Z,8.73
2018-01-05T07:55:03.184Z,8.63
2018-01-05T07:56:03.789Z,8.71
2018-01-05T07:57:04.387Z,8.68
2018-01-05T07:58:04.991Z,8.71
2018-01-05T07:59:05.591Z,8.63
2018-01-05T08:00:06.197Z,8.67
2018-01-05T08:01:06.800Z,8.71
2018-01-05T08:02:07.403Z,8.67
2018-01-05T08:03:08.011Z,8.60
2018-01-05T08:04:08.618Z,8.55
2018-01-05T08:05:09.212Z,8.56
2018-01-05T08:06:09.810Z,8.63
2018-01-05T08:07:10.417Z,8.60
2018-01-05T08:08:11.012Z,8.60
2018-01-05T08:09:11.625Z,8.60
2018-01-05T08:10:12.232Z,8.59
2018-01-05T08:11:12.858Z,8.56
2018-01-05T08:12:13.462Z,8.58
2018-01-05T08:13:14.073Z,8.59
2018-01-05T08:14:14.674Z,8.58
2018-01-05T08:15:15.282Z,8.56
2018-01-05T08:16:15.890Z,8.58
2018-01-05T08:17:16.509Z,8.60
2018-01-05T08:18:17.115Z,8.55
2018-01-05T08:19:17.726Z,8.56
2018-01-05T08:20:18.329Z,8.56
2018-01-05T08:21:18.943Z,8.56
2018-01-05T08:22:19.572Z,8.66
2018-01-05T08:23:20.194Z,8.60
2018-01-05T08:24:20.816Z,8.59
2018-01-05T08:25:21.437Z,8.60
2018-01-05T08:26:22.059Z,8.66
2018-01-05T08:27:22.674Z,8.60
2018-01-05T08:28:23.267Z,8.56
2018-01-05T08:29:23.878Z,8.56
2018-01-05T08:30:24.492Z,8.63
2018-01-05T08:31:25.148Z,8.56
2018-01-05T08:32:25.704Z,8.50
2018-01-05T08:33:26.353Z,8.52
2018-01-05T08:34:26.947Z,8.55
2018-01-05T08:35:27.551Z,8.63
2018-01-05T08:36:28.165Z,8.58
2018-01-05T08:37:28.779Z,8.58
2018-01-05T08:38:29.407Z,8.56
2018-01-05T08:39:30.016Z,8.59
2018-01-05T08:40:30.621Z,8.53
2018-01-05T08:41:31.230Z,8.55
2018-01-05T08:42:31.835Z,8.55
2018-01-05T08:43:32.438Z,8.53
2018-01-05T08:44:33.049Z,8.53
2018-01-05T08:45:33.663Z,8.56
2018-01-05T08:46:34.281Z,8.55
2018-01-05T08:47:34.890Z,8.58
2018-01-05T08:48:35.497Z,8.58
2018-01-05T08:49:36.101Z,8.60
2018-01-05T08:50:36.711Z,8.66
2018-01-05T08:51:37.332Z,8.60
2018-01-05T08:52:37.941Z,8.67
2018-01-05T08:53:38.555Z,8.71
2018-01-05T08:54:39.150Z,8.76
2018-01-05T08:55:39.767Z,8.77
2018-01-05T08:56:40.367Z,8.84
2018-01-05T08:57:40.981Z,8.85
2018-01-05T08:58:41.579Z,8.77
2018-01-05T08:59:42.182Z,8.88
2018-01-05T09:00:42.781Z,8.88
2018-01-05T09:01:43.391Z,8.96
2018-01-05T09:02:43.997Z,8.96
2018-01-05T09:03:44.613Z,8.92
2018-01-05T09:04:45.235Z,8.96
2018-01-05T09:05:45.823Z,9.00
2018-01-05T09:06:46.437Z,9.01
2018-01-05T09:07:47.043Z,8.92
2018-01-05T09:08:47.643Z,9.06
2018-01-05T09:09:48.252Z,8.88
2018-01-05T09:10:48.856Z,9.00
2018-01-05T09:11:49.472Z,9.00
2018-01-05T09:12:50.070Z,9.08
2018-01-05T09:13:50.695Z,9.12
2018-01-05T09:14:51.302Z,9.23
2018-01-05T09:15:51.925Z,9.35
2018-01-05T09:16:52.540Z,9.48
2018-01-05T09:17:53.161Z,9.62
2018-01-05T09:18:53.768Z,9.71
2018-01-05T09:19:54.375Z,9.61
2018-01-05T09:20:54.994Z,9.69
2018-01-05T09:21:55.590Z,9.77
2018-01-05T09:22:56.198Z,9.71
2018-01-05T09:23:56.812Z,9.79
2018-01-05T09:24:57.434Z,9.79
2018-01-05T09:25:58.054Z,9.80
2018-01-05T09:26:58.672Z,9.88
2018-01-05T09:27:59.278Z,9.95
2018-01-05T09:28:59.877Z,9.87
2018-01-05T09:30:00.494Z,9.91
2018-01-05T09:31:01.111Z,9.98
2018-01-05T09:32:01.736Z,10.16
2018-01-05T09:33:02.362Z,10.16
2018-01-05T09:34:02.999Z,10.32
2018-01-05T09:35:03.592Z,10.41
2018-01-05T09:36:04.197Z,10.44
2018-01-05T09:37:04.809Z,10.49
2018-01-05T09:38:05.419Z,10.57
2018-01-05T09:39:06.040Z,10.67
2018-01-05T09:40:06.651Z,10.57
2018-01-05T09:41:07.261Z,10.60
2018-01-05T09:42:07.877Z,10.67
2018-01-05T09:43:08.499Z,10.64
2018-01-05T09:44:09.142Z,10.63
2018-01-05T09:45:09.729Z,10.60
2018-01-05T09:46:10.354Z,10.61
2018-01-05T09:47:10.962Z,10.54
2018-01-05T09:48:11.573Z,10.57
2018-01-05T09:49:12.189Z,10.54
2018-01-05T09:50:12.826Z,10.49
2018-01-05T09:51:13.423Z,10.47
2018-01-05T09:52:14.042Z,10.47
2018-01-05T09:53:14.653Z,10.37
2018-01-05T09:54:15.265Z,10.42
2018-01-05T09:55:15.865Z,10.44
2018-01-05T09:56:16.488Z,10.34
2018-01-05T09:57:17.092Z,10.37
2018-01-05T09:58:17.714Z,10.34
2018-01-05T09:59:18.335Z,10.34
2018-01-05T10:00:19.077Z,10.29
2018-01-05T10:01:19.695Z,10.22
2018-01-05T10:02:20.315Z,10.19
2018-01-05T10:03:20.930Z,10.19
2018-01-05T10:04:21.544Z,10.14
2018-01-05T10:05:22.154Z,10.05
2018-01-05T10:06:22.769Z,9.96
2018-01-05T10:07:23.382Z,10.04
2018-01-05T10:08:23.994Z,10.05
2018-01-05T10:09:24.589Z,9.99
2018-01-05T10:10:25.206Z,10.02
2018-01-05T10:11:25.836Z,10.02
2018-01-05T10:12:26.445Z,9.94
2018-01-05T10:13:27.046Z,9.87
2018-01-05T10:14:27.654Z,9.95
2018-01-05T10:15:28.272Z,9.91
2018-01-05T10:16:28.872Z,9.91
2018-01-05T10:17:29.472Z,9.83
2018-01-05T10:18:30.064Z,9.84
2018-01-05T10:19:30.671Z,9.88
2018-01-05T10:20:31.281Z,9.91
2018-01-05T10:21:31.890Z,9.94
2018-01-05T10:22:32.502Z,9.94
2018-01-05T10:23:33.117Z,9.81
2018-01-05T10:24:33.722Z,9.84
2018-01-05T10:25:34.331Z,9.91
2018-01-05T10:26:34.937Z,9.91
2018-01-05T10:27:35.542Z,9.86
2018-01-05T10:28:36.146Z,9.77
2018-01-05T10:29:36.760Z,9.94
2018-01-05T10:30:37.366Z,9.86
2018-01-05T10:31:37.977Z,9.80
2018-01-05T10:32:38.590Z,9.84
2018-01-05T10:33:39.240Z,9.80
2018-01-05T10:34:39.795Z,9.84
2018-01-05T10:35:40.406Z,9.88
2018-01-05T10:36:41.011Z,9.88
2018-01-05T10:37:41.630Z,9.90
2018-01-05T10:38:42.254Z,9.86
2018-01-05T10:39:42.880Z,9.83
2018-01-05T10:40:43.489Z,9.98
2018-01-05T10:41:44.087Z,9.99
2018-01-05T10:42:44.694Z,10.01
2018-01-05T10:43:45.297Z,10.06
2018-01-05T10:44:45.943Z,10.02
2018-01-05T10:45:46.549Z,10.09
2018-01-05T10:46:47.160Z,10.06
2018-01-05T10:47:47.800Z,9.99
2018-01-05T10:48:48.413Z,10.12
2018-01-05T10:49:49.026Z,10.09
2018-01-05T10:50:49.644Z,10.20
2018-01-05T10:51:50.261Z,10.14
2018-01-05T10:52:50.872Z,10.13
2018-01-05T10:53:51.488Z,10.09
2018-01-05T10:54:52.098Z,10.14
2018-01-05T10:55:52.714Z,10.06
2018-01-05T10:56:53.332Z,10.16
2018-01-05T10:57:53.936Z,10.13
2018-01-05T10:58:54.556Z,10.27
2018-01-05T10:59:55.170Z,10.20
2018-01-05T11:00:55.776Z,10.14
2018-01-05T11:01:56.408Z,10.17
2018-01-05T11:02:57.033Z,10.23
2018-01-05T11:03:57.631Z,10.19
2018-01-05T11:04:58.233Z,10.22
2018-01-05T11:05:58.830Z,10.19
2018-01-05T11:06:59.440Z,10.16
2018-01-05T11:08:00.060Z,10.13
2018-01-05T11:09:00.679Z,10.16
2018-01-05T11:10:01.290Z,10.20
2018-01-05T11:11:01.899Z,10.19
2018-01-05T11:12:02.575Z,10.31
2018-01-05T11:13:03.171Z,10.24
2018-01-05T11:14:03.793Z,10.29
2018-01-05T11:15:04.412Z,10.37
2018-01-05T11:16:05.027Z,10.29
2018-01-05T11:17:05.633Z,10.37
2018-01-05T11:18:06.253Z,10.32
2018-01-05T11:19:06.868Z,10.34
2018-01-05T11:20:07.483Z,10.41
2018-01-05T11:21:08.116Z,10.35
2018-01-05T11:22:08.732Z,10.39
2018-01-05T11:23:09.367Z,10.38
2018-01-05T11:24:09.975Z,10.37
2018-01-05T11:25:10.605Z,10.44
2018-01-05T11:26:11.208Z,10.39
2018-01-05T11:27:11.814Z,10.32
2018-01-05T11:28:12.426Z,10.42
2018-01-05T11:29:13.039Z,10.45
2018-01-05T11:30:13.658Z,10.44
2018-01-05T11:31:14.283Z,10.37
2018-01-05T11:32:14.896Z,10.39
2018-01-05T11:33:15.507Z,10.42
2018-01-05T11:34:16.124Z,10.51
2018-01-05T11:35:16.744Z,10.49
2018-01-05T11:36:17.357Z,10.47
2018-01-05T11:37:17.976Z,10.61
2018-01-05T11:38:18.590Z,10.63
2018-01-05T11:39:19.221Z,10.72
2018-01-05T11:40:19.841Z,10.74
2018-01-05T11:41:20.431Z,10.76
2018-01-05T11:42:21.040Z,10.71
2018-01-05T11:43:21.640Z,10.81
2018-01-05T11:44:22.273Z,10.75
2018-01-05T11:45:22.874Z,10.79
2018-01-05T11:46:23.490Z,10.79
2018-01-05T11:47:24.112Z,10.78
2018-01-05T11:48:24.720Z,10.63
2018-01-05T11:49:25.345Z,10.63
2018-01-05T11:50:25.963Z,10.61
2018-01-05T11:51:26.576Z,10.61
2018-01-05T11:52:27.186Z,10.60
2018-01-05T11:53:27.804Z,10.66
2018-01-05T11:54:28.427Z,10.63
2018-01-05T11:55:29.061Z,10.66
2018-01-05T11:56:29.734Z,10.53
2018-01-05T11:57:30.371Z,10.60
2018-01-05T11:58:31.021Z,10.56
2018-01-05T11:59:31.617Z,10.56
2018-01-05T12:00:32.232Z,10.49
2018-01-05T12:01:32.840Z,10.45
2018-01-05T12:02:33.449Z,10.49
2018-01-05T12:03:34.293Z,10.39
2018-01-05T12:04:34.896Z,10.49
2018-01-05T12:05:35.511Z,10.56
2018-01-05T12:06:36.174Z,10.54
2018-01-05T12:07:36.771Z,10.53
2018-01-05T12:08:37.367Z,10.53
2018-01-05T12:09:37.972Z,10.51
2018-01-05T12:10:38.582Z,10.49
2018-01-05T12:11:39.201Z,10.69
2018-01-05T12:12:39.804Z,10.72
2018-01-05T12:13:40.417Z,10.58
2018-01-05T12:14:41.026Z,10.57
2018-01-05T12:15:41.641Z,10.57
2018-01-05T12:16:42.263Z,10.49
2018-01-05T12:17:42.874Z,10.61
2018-01-05T12:18:43.477Z,10.51
2018-01-05T12:19:44.095Z,10.69
2018-01-05T12:20:44.715Z,10.64
2018-01-05T12:21:45.324Z,10.63
2018-01-05T12:22:45.940Z,10.78
2018-01-05T12:23:46.549Z,10.75
2018-01-05T12:24:47.174Z,10.64
2018-01-05T12:25:47.792Z,10.57
2018-01-05T12:26:48.403Z,10.74
2018-01-05T12:27:49.015Z,10.78
2018-01-05T12:28:49.625Z,10.85
2018-01-05T12:29:50.229Z,10.93
2018-01-05T12:30:50.838Z,10.82
2018-01-05T12:31:51.566Z,10.82
2018-01-05T12:32:52.178Z,10.83
2018-01-05T12:33:52.794Z,10.97
2018-01-05T12:34:53.400Z,10.91
2018-01-05T12:35:54.004Z,11.03
2018-01-05T12:36:54.622Z,10.96
2018-01-05T12:37:55.261Z,10.91
2018-01-05T12:38:55.869Z,10.96
2018-01-05T12:39:56.469Z,10.97
2018-01-05T12:40:57.081Z,10.93
2018-01-05T12:41:57.702Z,11.01
2018-01-05T12:42:58.363Z,10.97
2018-01-05T12:43:58.942Z,10.99
2018-01-05T12:44:59.553Z,10.97
2018-01-05T12:46:00.170Z,10.87
2018-01-05T12:47:00.790Z,10.85
2018-01-05T12:48:01.398Z,10.91
2018-01-05T12:49:02.000Z,10.90
2018-01-05T12:50:02.622Z,10.96
2018-01-05T12:51:03.237Z,10.90
2018-01-05T12:52:03.853Z,10.82
2018-01-05T12:53:04.469Z,10.87
2018-01-05T12:54:05.079Z,10.82
2018-01-05T12:55:05.679Z,10.82
2018-01-05T12:56:06.291Z,10.90
2018-01-05T12:57:06.901Z,10.79
2018-01-05T12:58:07.511Z,10.82
2018-01-05T12:59:08.123Z,10.81
2018-01-05T13:00:08.746Z,10.87
2018-01-05T13:01:09.363Z,10.85
2018-01-05T13:02:09.974Z,10.76
2018-01-05T13:03:10.577Z,10.74
2018-01-05T13:04:11.178Z,10.79
2018-01-05T13:05:11.789Z,10.75
2018-01-05T13:06:12.424Z,10.78
2018-01-05T13:07:13.014Z,10.79
2018-01-05T13:08:13.636Z,10.83
2018-01-05T13:09:14.245Z,10.81
2018-01-05T13:10:14.852Z,10.75
2018-01-05T13:11:15.460Z,10.82
2018-01-05T13:12:16.078Z,10.85
2018-01-05T13:13:16.683Z,10.75
2018-01-05T13:14:17.298Z,10.76
2018-01-05T13:15:17.913Z,10.85
2018-01-05T13:16:18.522Z,10.87
2018-01-05T13:17:19.129Z,10.85
2018-01-05T13:18:19.745Z,10.74
2018-01-05T13:19:20.361Z,10.76
2018-01-05T13:20:20.975Z,10.76